Time;durP1;ratioP1;P1;durP2;ratioP2;P2;SDS_P1;SDS_P2;PMS_P1;PMS_P2;Temp;Humidity;BMP_temperature;BMP_pressure;BME280_temperature;BME280_humidity;BME280_pressure;Samples;Min_cycle;Max_cycle;Signal;HPM_P1;HPM_P2
2022/04/03 00:00:28;;;;;;;2.93;1.50;;;7.70;67.70;;;;;;5114428;28;20549;-63
2022/04/03 00:02:54;;;;;;;1.97;1.57;;;7.70;68.10;;;;;;5114142;28;20527;-63
2022/04/03 00:05:20;;;;;;;1.97;1.77;;;7.70;68.90;;;;;;5113730;28;20118;-63
2022/04/03 00:07:46;;;;;;;2.10;1.40;;;7.70;69.30;;;;;;5114049;28;20057;-63
2022/04/03 00:10:14;;;;;;;1.60;1.23;;;7.70;69.40;;;;;;5113975;28;20089;-63
2022/04/03 00:12:41;;;;;;;1.70;1.40;;;7.70;68.10;;;;;;5113715;28;20420;-63
2022/04/03 00:15:07;;;;;;;1.87;1.43;;;7.70;68.30;;;;;;5114246;28;20036;-63
2022/04/03 00:17:32;;;;;;;2.53;1.40;;;7.60;68.60;;;;;;5114169;28;20035;-63
2022/04/03 00:19:58;;;;;;;2.27;1.70;;;7.60;68.70;;;;;;5113695;28;20475;-63
2022/04/03 00:22:24;;;;;;;2.60;1.70;;;7.60;68.80;;;;;;5114069;28;20059;-63
2022/04/03 00:24:51;;;;;;;2.43;1.30;;;7.60;68.10;;;;;;5113932;28;20035;-63
2022/04/03 00:27:17;;;;;;;1.70;1.43;;;7.60;68.10;;;;;;5113781;28;20137;-63
2022/04/03 00:29:43;;;;;;;1.93;1.30;;;7.60;67.80;;;;;;5113331;28;20452;-63
2022/04/03 00:32:09;;;;;;;1.73;1.50;;;7.60;67.50;;;;;;5113163;28;20020;-63
2022/04/03 00:34:34;;;;;;;2.00;1.50;;;7.60;67.40;;;;;;5113758;28;20035;-63
2022/04/03 00:37:00;;;;;;;1.67;1.40;;;7.50;68.20;;;;;;5113360;28;20365;-63
2022/04/03 00:39:26;;;;;;;1.70;1.40;;;7.50;68.30;;;;;;5113865;28;20035;-63
2022/04/03 00:41:52;;;;;;;1.83;1.30;;;7.50;68.30;;;;;;5113790;28;20027;-63
2022/04/03 02:10:09;;;;;;;1.60;1.30;;;7.20;70.20;;;;;;5225443;22;23512;-61
2022/04/03 02:12:40;;;;;;;1.83;1.27;;;7.20;70.20;;;;;;5081124;22;20109;-63
2022/04/03 02:15:08;;;;;;;1.77;1.50;;;7.10;71.70;;;;;;5075418;28;20507;-62
2022/04/03 02:17:34;;;;;;;2.17;1.40;;;7.10;72.00;;;;;;5095702;28;20067;-62
2022/04/03 02:20:00;;;;;;;2.23;1.63;;;7.10;73.20;;;;;;5095840;28;20109;-63
2022/04/03 02:22:26;;;;;;;2.40;1.80;;;7.00;72.40;;;;;;5095797;28;20031;-63
2022/04/03 02:24:51;;;;;;;2.67;1.60;;;7.00;73.20;;;;;;5095821;28;20028;-62
2022/04/03 02:27:17;;;;;;;2.03;1.40;;;7.10;72.50;;;;;;5095259;28;20032;-62
2022/04/03 02:29:43;;;;;;;2.27;1.50;;;7.10;72.10;;;;;;5095638;28;20056;-63
2022/04/03 02:32:08;;;;;;;1.33;1.03;;;7.10;72.70;;;;;;5095533;28;20181;-63
2022/04/03 02:34:34;;;;;;;1.63;1.43;;;7.10;72.90;;;;;;5095425;28;20044;-63
2022/04/03 02:37:00;;;;;;;1.70;1.20;;;7.10;73.30;;;;;;5095294;28;20067;-62
2022/04/03 02:39:25;;;;;;;2.07;1.50;;;7.00;75.30;;;;;;5095621;28;20368;-62
2022/04/03 02:41:51;;;;;;;1.67;1.37;;;7.00;73.70;;;;;;5095494;28;20361;-62
2022/04/03 02:44:18;;;;;;;3.03;1.70;;;7.00;73.50;;;;;;5095217;28;20036;-62
2022/04/03 02:46:44;;;;;;;1.83;1.43;;;7.00;72.60;;;;;;5095843;28;20036;-63
2022/04/03 02:49:09;;;;;;;1.77;1.43;;;7.00;72.30;;;;;;5095736;28;20111;-62
2022/04/03 02:51:38;;;;;;;1.80;1.47;;;7.00;71.50;;;;;;5095130;28;20028;-62
2022/04/03 02:54:04;;;;;;;1.93;1.33;;;7.00;71.50;;;;;;5095576;28;20044;-62
2022/04/03 02:56:30;;;;;;;2.13;1.40;;;7.00;72.30;;;;;;5095173;28;20411;-62
2022/04/03 02:58:56;;;;;;;2.20;1.40;;;7.00;72.20;;;;;;5094889;28;20037;-62
2022/04/03 03:01:22;;;;;;;2.00;1.20;;;7.00;71.50;;;;;;5094892;28;20040;-62
2022/04/03 03:03:48;;;;;;;1.83;1.20;;;7.00;69.40;;;;;;5095417;28;20028;-62
2022/04/03 03:06:17;;;;;;;1.33;1.10;;;7.10;68.30;;;;;;5095058;28;20101;-62
2022/04/03 03:08:43;;;;;;;2.77;1.20;;;7.10;66.10;;;;;;5094859;28;20369;-62
2022/04/03 03:11:10;;;;;;;1.70;1.20;;;7.10;64.10;;;;;;5094689;28;20031;-63
2022/04/03 03:13:36;;;;;;;2.30;1.30;;;7.10;63.90;;;;;;5094635;28;20127;-62
2022/04/03 03:16:02;;;;;;;1.87;1.00;;;7.10;62.30;;;;;;5094906;28;20067;-62
2022/04/03 03:18:28;;;;;;;3.57;1.20;;;7.10;63.00;;;;;;5094582;28;20035;-62
2022/04/03 03:20:54;;;;;;;2.10;1.50;;;7.10;62.90;;;;;;5094884;28;20434;-62
2022/04/03 03:23:19;;;;;;;3.13;1.47;;;7.10;63.20;;;;;;5094871;28;20516;-62
2022/04/03 03:25:45;;;;;;;1.87;1.40;;;7.10;63.40;;;;;;5094598;28;20028;-62
2022/04/03 03:28:12;;;;;;;2.07;1.40;;;7.10;65.20;;;;;;5094318;28;20484;-62
2022/04/03 03:30:38;;;;;;;1.73;1.30;;;7.10;65.60;;;;;;5094455;28;20046;-62
2022/04/03 03:33:05;;;;;;;1.80;1.13;;;7.10;65.60;;;;;;5094037;28;20044;-62
2022/04/03 03:35:30;;;;;;;2.60;1.50;;;7.00;65.80;;;;;;5094684;28;20058;-63
2022/04/03 03:37:56;;;;;;;1.97;1.37;;;7.00;66.20;;;;;;5094623;28;20040;-62
2022/04/03 03:40:23;;;;;;;1.50;1.20;;;7.00;65.40;;;;;;5093411;28;20039;-62
2022/04/03 03:42:49;;;;;;;3.40;1.20;;;7.00;64.70;;;;;;5094486;28;20063;-62
2022/04/03 03:45:16;;;;;;;1.40;1.00;;;7.00;68.00;;;;;;5094488;28;20111;-62
2022/04/03 03:47:46;;;;;;;1.13;1.00;;;6.90;69.90;;;;;;5094211;28;20135;-62
2022/04/03 03:50:14;;;;;;;1.20;0.97;;;6.90;69.80;;;;;;5094175;28;20032;-62
2022/04/03 03:52:41;;;;;;;1.53;1.20;;;6.90;68.50;;;;;;5093825;28;20032;-62
2022/04/03 03:55:08;;;;;;;2.73;1.30;;;6.90;68.00;;;;;;5093930;28;20472;-62
2022/04/03 03:57:34;;;;;;;1.50;1.10;;;6.90;67.30;;;;;;5093867;28;20048;-62
2022/04/03 04:00:00;;;;;;;1.87;1.17;;;6.90;67.70;;;;;;5093545;28;20028;-62
2022/04/03 04:02:25;;;;;;;1.77;1.20;;;6.90;68.90;;;;;;5093836;28;20133;-62
2022/04/03 04:04:51;;;;;;;2.07;1.20;;;6.80;69.40;;;;;;5093775;28;20032;-62
2022/04/03 04:07:17;;;;;;;1.50;1.20;;;6.80;69.40;;;;;;5093506;28;20039;-62
2022/04/03 04:09:42;;;;;;;1.60;1.30;;;6.80;69.60;;;;;;5093298;28;20035;-62
2022/04/03 04:12:09;;;;;;;1.67;1.27;;;6.80;69.80;;;;;;5093448;28;20051;-63
2022/04/03 04:14:36;;;;;;;1.67;1.30;;;6.70;70.30;;;;;;5093859;28;20177;-62
2022/04/03 04:17:02;;;;;;;1.90;1.60;;;6.70;70.60;;;;;;5093802;28;20063;-64
2022/04/03 04:19:28;;;;;;;2.03;1.30;;;6.70;72.10;;;;;;5093846;28;20064;-61
2022/04/03 04:21:54;;;;;;;2.70;1.27;;;6.70;71.90;;;;;;5093885;28;20043;-63
2022/04/03 04:24:19;;;;;;;4.90;1.60;;;6.70;72.50;;;;;;5093385;28;20085;-63
2022/04/03 04:26:45;;;;;;;2.30;1.60;;;6.60;69.80;;;;;;5093826;28;20032;-62
2022/04/03 04:29:11;;;;;;;1.60;1.30;;;6.60;70.70;;;;;;5093330;28;20097;-62
2022/04/03 04:31:37;;;;;;;1.90;1.27;;;6.60;72.00;;;;;;5093768;28;20082;-62
2022/04/03 04:34:03;;;;;;;2.43;1.60;;;6.60;72.60;;;;;;5093340;28;20044;-63
2022/04/03 04:36:29;;;;;;;2.57;1.50;;;6.70;71.90;;;;;;5075433;28;20433;-62
2022/04/03 04:38:56;;;;;;;2.10;1.23;;;6.70;71.50;;;;;;5092914;28;20074;-62
2022/04/03 04:41:21;;;;;;;1.70;1.30;;;6.70;71.50;;;;;;5093236;28;20090;-62
2022/04/03 04:43:47;;;;;;;1.40;1.13;;;6.70;71.50;;;;;;5093604;28;20036;-62
2022/04/03 04:46:13;;;;;;;2.10;1.50;;;6.70;70.50;;;;;;5093309;28;20032;-62
2022/04/03 04:48:38;;;;;;;1.50;1.33;;;6.70;70.20;;;;;;5093285;28;20040;-62
2022/04/03 04:51:04;;;;;;;2.57;1.53;;;6.60;71.30;;;;;;5092777;28;20038;-62
2022/04/03 04:53:29;;;;;;;2.23;1.67;;;6.60;72.70;;;;;;5092879;28;20450;-62
2022/04/03 04:55:55;;;;;;;4.93;1.60;;;6.60;72.30;;;;;;5093300;28;20078;-62
2022/04/03 04:58:21;;;;;;;3.73;1.60;;;6.60;72.50;;;;;;5093511;28;20498;-62
2022/04/03 05:00:47;;;;;;;2.13;1.50;;;6.50;73.70;;;;;;5093093;28;20032;-62
2022/04/03 05:03:12;;;;;;;1.63;1.43;;;6.50;75.20;;;;;;5093159;28;20039;-62
2022/04/03 05:05:39;;;;;;;2.00;1.70;;;6.40;75.40;;;;;;5093268;28;20561;-62
2022/04/03 05:08:05;;;;;;;2.40;1.53;;;6.50;75.60;;;;;;5092899;28;20120;-62
2022/04/03 05:10:31;;;;;;;6.43;1.60;;;6.50;75.00;;;;;;5093101;28;20033;-62
2022/04/03 05:12:58;;;;;;;2.97;1.70;;;6.50;74.20;;;;;;5092544;28;20041;-62
2022/04/03 05:15:24;;;;;;;2.30;1.67;;;6.50;73.20;;;;;;5092890;28;20395;-63
2022/04/03 05:17:50;;;;;;;2.10;1.73;;;6.50;72.80;;;;;;5093057;28;20032;-62
2022/04/03 05:20:16;;;;;;;3.27;2.10;;;6.60;72.90;;;;;;5093157;28;20458;-62
2022/04/03 05:22:42;;;;;;;3.70;1.90;;;6.50;73.10;;;;;;5092895;28;20028;-62
2022/04/03 05:25:11;;;;;;;3.03;2.20;;;6.50;73.10;;;;;;5092997;28;20035;-63
2022/04/03 05:27:40;;;;;;;3.40;2.17;;;6.50;72.90;;;;;;5093025;28;20553;-62
2022/04/03 05:30:07;;;;;;;4.10;2.20;;;6.50;73.50;;;;;;5092962;28;20074;-62
2022/04/03 05:32:33;;;;;;;5.07;2.43;;;6.50;73.80;;;;;;5092714;28;20040;-62
2022/04/03 05:34:59;;;;;;;4.00;2.27;;;6.50;73.70;;;;;;5093314;28;20115;-62
2022/04/03 05:37:26;;;;;;;2.50;1.90;;;6.50;73.90;;;;;;5092475;28;20036;-62
2022/04/03 05:39:52;;;;;;;3.70;2.33;;;6.50;75.20;;;;;;5092793;28;20384;-62
2022/04/03 05:42:18;;;;;;;5.80;2.47;;;6.50;75.30;;;;;;5092744;28;20032;-62
2022/04/03 05:44:44;;;;;;;2.40;2.10;;;6.50;74.60;;;;;;5092535;28;20047;-62
2022/04/03 05:47:09;;;;;;;4.43;2.23;;;6.50;74.20;;;;;;5092584;28;20029;-62
2022/04/03 05:49:35;;;;;;;2.80;2.20;;;6.50;75.60;;;;;;5092676;28;20488;-62
2022/04/03 05:52:02;;;;;;;2.63;2.40;;;6.50;76.00;;;;;;5092402;28;20476;-62
2022/04/03 05:54:27;;;;;;;3.00;2.20;;;6.50;77.10;;;;;;5092349;28;20041;-62
2022/04/03 05:56:53;;;;;;;3.53;2.63;;;6.50;76.80;;;;;;5092564;28;20111;-63
2022/04/03 05:59:20;;;;;;;5.20;2.67;;;6.50;76.70;;;;;;5092862;28;20066;-62
2022/04/03 06:01:46;;;;;;;4.07;2.80;;;6.60;75.40;;;;;;5092520;28;20081;-62
2022/04/03 06:04:12;;;;;;;6.83;3.30;;;6.60;75.30;;;;;;5095003;28;20036;-62
2022/04/03 06:06:38;;;;;;;4.40;2.57;;;6.60;75.40;;;;;;5093375;28;20036;-62
2022/04/03 06:09:04;;;;;;;3.27;2.30;;;6.60;74.50;;;;;;5093284;28;20040;-63
2022/04/03 06:11:30;;;;;;;3.10;2.57;;;6.60;73.70;;;;;;5095055;28;20119;-61
2022/04/03 06:13:55;;;;;;;3.10;2.57;;;6.70;73.50;;;;;;5095858;28;20564;-63
2022/04/03 06:16:21;;;;;;;4.67;2.30;;;6.70;73.50;;;;;;5095713;28;20082;-65
2022/04/03 06:18:46;;;;;;;3.97;2.23;;;6.70;75.00;;;;;;5095562;28;20070;-62
2022/04/03 06:21:12;;;;;;;4.83;2.63;;;6.70;76.20;;;;;;5095919;28;20494;-63
2022/04/03 06:23:38;;;;;;;18.33;2.70;;;6.70;76.40;;;;;;5095992;28;20392;-61
2022/04/03 06:26:04;;;;;;;4.67;3.00;;;6.70;76.00;;;;;;5095485;28;20505;-64
2022/04/03 06:28:29;;;;;;;3.27;2.40;;;6.80;76.50;;;;;;5095275;28;20039;-62
2022/04/03 06:30:56;;;;;;;3.13;2.67;;;6.80;78.10;;;;;;5095591;28;20078;-64
2022/04/03 06:33:22;;;;;;;6.57;3.20;;;6.90;77.70;;;;;;5095484;28;20040;-61
2022/04/03 06:35:49;;;;;;;18.10;13.10;;;6.90;77.90;;;;;;5095354;28;20043;-62
2022/04/03 06:38:15;;;;;;;12.93;7.67;;;6.90;77.30;;;;;;5092944;28;20047;-61
2022/04/03 06:40:49;;;;;;;9.77;7.27;;;6.90;76.60;;;;;;5092715;28;20072;-62
2022/04/03 06:43:23;;;;;;;10.50;7.80;;;7.00;74.90;;;;;;5094411;28;20486;-61
2022/04/03 06:45:50;;;;;;;10.20;6.90;;;7.00;74.30;;;;;;5094776;28;20042;-62
2022/04/03 06:48:16;;;;;;;5.97;3.97;;;7.00;74.20;;;;;;5094574;28;20077;-61
2022/04/03 06:50:41;;;;;;;8.53;4.07;;;7.10;73.00;;;;;;5094874;28;20078;-63
2022/04/03 06:53:07;;;;;;;7.37;3.70;;;7.10;69.70;;;;;;5094527;28;20040;-64
2022/04/03 06:55:33;;;;;;;8.10;4.00;;;7.10;69.90;;;;;;5094159;28;20031;-62
2022/04/03 06:57:59;;;;;;;7.00;3.67;;;7.20;69.40;;;;;;5094129;28;20060;-62
2022/04/03 07:00:26;;;;;;;5.67;4.00;;;7.20;69.00;;;;;;5094303;28;20057;-61
2022/04/03 07:02:51;;;;;;;5.70;2.90;;;7.30;68.50;;;;;;5094589;28;20068;-62
2022/04/03 07:05:18;;;;;;;7.33;4.10;;;7.30;67.10;;;;;;5094538;28;20059;-62
2022/04/03 07:07:43;;;;;;;5.80;3.10;;;7.40;64.80;;;;;;5094473;28;20398;-62
2022/04/03 07:10:09;;;;;;;6.70;3.40;;;7.50;65.10;;;;;;5094397;28;20110;-63
2022/04/03 07:12:35;;;;;;;5.07;3.20;;;7.60;64.90;;;;;;5093357;28;20056;-62
2022/04/03 07:15:03;;;;;;;6.27;3.07;;;7.60;64.00;;;;;;5093376;28;20068;-62
2022/04/03 07:17:28;;;;;;;5.10;3.50;;;7.70;64.00;;;;;;5093841;28;20040;-67
2022/04/03 07:19:54;;;;;;;7.83;3.53;;;7.80;63.60;;;;;;5094099;28;20040;-66
2022/04/03 07:22:19;;;;;;;13.03;3.27;;;7.90;63.30;;;;;;5094198;28;20377;-65
2022/04/03 07:24:45;;;;;;;8.00;3.27;;;7.90;63.30;;;;;;5093957;28;20072;-65
2022/04/03 07:27:11;;;;;;;8.50;2.73;;;8.00;63.20;;;;;;5094027;28;20453;-66
2022/04/03 07:29:36;;;;;;;4.03;2.37;;;8.10;60.70;;;;;;5093522;28;20400;-65
2022/04/03 07:32:03;;;;;;;3.70;2.40;;;8.20;59.70;;;;;;5093519;28;20384;-65
2022/04/03 07:34:28;;;;;;;4.07;2.70;;;8.30;58.10;;;;;;5093507;28;20040;-67
2022/04/03 07:36:54;;;;;;;6.80;2.60;;;8.30;57.40;;;;;;5094079;28;20040;-66
2022/04/03 07:39:21;;;;;;;4.87;2.50;;;8.40;58.40;;;;;;5075049;28;20067;-66
2022/04/03 07:41:46;;;;;;;3.57;2.67;;;8.40;57.40;;;;;;5092954;28;20159;-69
2022/04/03 07:44:12;;;;;;;4.47;2.47;;;8.50;55.60;;;;;;5093067;28;20107;-65
2022/04/03 07:46:38;;;;;;;8.03;2.57;;;8.60;56.40;;;;;;5093812;28;20039;-65
2022/04/03 07:49:04;;;;;;;7.00;2.80;;;8.60;54.40;;;;;;5094002;28;20036;-65
2022/04/03 07:51:30;;;;;;;6.83;2.63;;;8.70;55.20;;;;;;5094046;28;20502;-65
2022/04/03 07:53:56;;;;;;;4.03;2.57;;;8.80;54.70;;;;;;5092902;28;20044;-65
2022/04/03 07:56:22;;;;;;;7.97;3.27;;;8.90;55.30;;;;;;5094200;28;20039;-65
2022/04/03 07:58:47;;;;;;;6.93;2.53;;;8.90;54.60;;;;;;5093961;28;20100;-65
2022/04/03 08:01:13;;;;;;;4.50;2.50;;;9.00;54.70;;;;;;5093926;28;20384;-65
2022/04/03 08:03:39;;;;;;;5.50;2.93;;;9.10;55.00;;;;;;5093605;28;20090;-65
2022/04/03 08:06:06;;;;;;;6.90;2.80;;;9.20;55.30;;;;;;5093300;28;20024;-65
2022/04/03 08:08:32;;;;;;;5.90;2.63;;;9.30;53.80;;;;;;5093418;28;20064;-65
2022/04/03 08:10:57;;;;;;;6.00;2.80;;;9.30;53.00;;;;;;5093214;28;20471;-65
2022/04/03 08:13:23;;;;;;;10.07;2.60;;;9.40;53.90;;;;;;5091495;28;20189;-65
2022/04/03 08:15:49;;;;;;;4.77;2.73;;;9.50;53.30;;;;;;5091642;28;20025;-65
2022/04/03 08:18:16;;;;;;;4.37;2.17;;;9.50;51.80;;;;;;5093389;28;20032;-65
2022/04/03 08:20:41;;;;;;;8.17;2.57;;;9.60;53.10;;;;;;5093353;28;20052;-64
2022/04/03 08:23:07;;;;;;;3.93;2.57;;;9.60;52.70;;;;;;5093225;28;20511;-65
2022/04/03 08:25:35;;;;;;;3.67;2.17;;;9.70;51.30;;;;;;5092598;28;20032;-68
2022/04/03 08:28:02;;;;;;;7.33;3.03;;;9.70;50.80;;;;;;5079492;28;20024;-64
2022/04/03 08:30:36;;;;;;;4.27;2.50;;;9.80;50.10;;;;;;5079383;28;20055;-65
2022/04/03 08:33:06;;;;;;;3.53;2.43;;;9.80;48.70;;;;;;5070984;28;20434;-68
2022/04/03 08:35:37;;;;;;;4.37;2.60;;;9.80;49.80;;;;;;5097397;28;20036;-65
2022/04/03 08:38:04;;;;;;;6.80;2.57;;;9.80;49.80;;;;;;5112754;28;20020;-65
2022/04/03 08:40:30;;;;;;;6.07;2.30;;;9.70;48.40;;;;;;5113336;28;20035;-65
2022/04/03 08:42:56;;;;;;;7.93;2.43;;;9.70;49.50;;;;;;5112591;28;20032;-68
2022/04/03 08:45:23;;;;;;;4.03;2.57;;;9.80;49.60;;;;;;5113150;28;20116;-64
2022/04/03 08:48:00;;;;;;;5.00;2.30;;;9.80;49.80;;;;;;5113331;28;20043;-64
2022/04/03 08:50:36;;;;;;;3.97;2.60;;;;;;;;;;5112833;28;20027;-64
2022/04/03 08:53:04;;;;;;;5.47;2.40;;;9.90;49.80;;;;;;5111866;28;20483;-66
2022/04/03 08:55:31;;;;;;;8.20;2.70;;;10.00;48.00;;;;;;5110457;28;20036;-66
2022/04/03 08:57:57;;;;;;;4.03;2.60;;;10.10;48.40;;;;;;5110150;28;20458;-65
2022/04/03 09:00:23;;;;;;;7.10;2.87;;;10.10;46.80;;;;;;5093745;28;20394;-65
2022/04/03 09:02:50;;;;;;;3.22;2.42;;;10.10;46.60;;;;;;5112902;28;20178;-64
2022/04/03 09:05:16;;;;;;;5.63;2.60;;;10.10;48.00;;;;;;5112966;28;20487;-65
2022/04/03 09:07:43;;;;;;;6.07;2.70;;;10.20;47.60;;;;;;5111645;28;20039;-65
2022/04/03 09:10:14;;;;;;;6.37;2.50;;;10.20;47.90;;;;;;5112753;28;20034;-65
2022/04/03 09:12:50;;;;;;;6.60;2.53;;;10.30;50.30;;;;;;5112123;28;20050;-65
2022/04/03 09:15:17;;;;;;;4.97;2.60;;;;;;;;;;5112557;28;20110;-64
2022/04/03 09:17:49;;;;;;;8.68;2.92;;;10.30;47.70;;;;;;5112486;28;20039;-64
2022/04/03 09:20:22;;;;;;;6.25;2.97;;;10.40;46.50;;;;;;5071911;28;20392;-65
2022/04/03 09:22:59;;;;;;;8.40;3.55;;;10.50;47.10;;;;;;5092038;28;20150;-64
2022/04/03 09:25:30;;;;;;;5.68;2.42;;;10.60;48.30;;;;;;5092723;28;20410;-65
2022/04/03 09:28:06;;;;;;;3.28;2.40;;;10.70;48.00;;;;;;5092643;28;20040;-65
2022/04/03 09:30:42;;;;;;;4.60;2.50;;;10.80;46.50;;;;;;5092121;28;20135;-65
2022/04/03 09:33:09;;;;;;;6.30;2.80;;;10.80;45.70;;;;;;5092333;28;20044;-65
2022/04/03 09:35:57;;;;;;;8.93;3.00;;;10.90;47.30;;;;;;5092596;28;20070;-68
2022/04/03 09:38:24;;;;;;;6.30;2.78;;;11.00;45.80;;;;;;5076373;28;20040;-65
2022/04/03 09:40:52;;;;;;;5.25;2.72;;;11.00;46.00;;;;;;5096138;28;20040;-65
2022/04/03 09:43:31;;;;;;;7.80;3.35;;;11.10;46.70;;;;;;5096583;28;20043;-65
2022/04/03 09:46:02;;;;;;;3.78;2.60;;;11.10;46.40;;;;;;5096537;28;20520;-65
2022/04/03 09:48:36;;;;;;;4.00;2.50;;;11.10;45.90;;;;;;5095770;28;20042;-66
2022/04/03 09:51:04;;;;;;;7.25;2.47;;;11.20;46.60;;;;;;5095939;28;20067;-65
2022/04/03 09:54:08;;;;;;;5.78;3.10;;;11.30;45.70;;;;;;5096119;28;20051;-65
2022/04/03 09:56:34;;;;;;;5.47;2.15;;;11.30;46.00;;;;;;5083135;28;20044;-67
2022/04/03 09:59:04;;;;;;;9.45;3.00;;;11.30;45.50;;;;;;5096299;28;20028;-66
2022/04/03 10:01:34;;;;;;;4.18;2.70;;;11.30;43.50;;;;;;5096281;28;20106;-66
2022/04/03 10:04:01;;;;;;;6.18;2.75;;;11.30;45.70;;;;;;5096129;28;20032;-66
2022/04/03 10:06:28;;;;;;;4.65;2.67;;;11.40;45.70;;;;;;5096195;28;20031;-66
2022/04/03 10:08:54;;;;;;;4.60;2.30;;;11.50;45.20;;;;;;5096427;28;20140;-65
2022/04/03 10:11:20;;;;;;;4.00;2.55;;;11.50;43.80;;;;;;5096159;28;20034;-66
2022/04/03 10:13:47;;;;;;;5.63;2.35;;;11.60;43.70;;;;;;5095940;28;20406;-66
2022/04/03 10:16:15;;;;;;;4.10;2.55;;;11.60;44.30;;;;;;5096154;28;20082;-66
2022/04/03 10:18:43;;;;;;;4.15;2.88;;;11.60;44.70;;;;;;5095971;28;20039;-65
2022/04/03 10:21:29;;;;;;;6.28;3.25;;;11.70;45.50;;;;;;5078013;28;20068;-66
2022/04/03 10:24:35;;;;;;;5.13;2.65;;;11.80;43.70;;;;;;5096370;28;20107;-66
2022/04/03 10:27:23;;;;;;;6.22;2.35;;;11.90;45.10;;;;;;5033624;28;20068;-65
2022/04/03 10:29:50;;;;;;;7.65;2.92;;;12.00;46.70;;;;;;5092431;28;20036;-66
2022/04/03 10:32:30;;;;;;;9.30;3.30;;;12.10;44.30;;;;;;5095998;28;20032;-65
2022/04/03 10:35:20;;;;;;;12.25;6.53;;;12.20;42.90;;;;;;5095940;28;20048;-65
2022/04/03 10:37:46;;;;;;;5.97;3.42;;;12.30;43.80;;;;;;5095824;28;20024;-66
2022/04/03 10:40:17;;;;;;;9.05;5.38;;;12.40;43.90;;;;;;5095734;28;20036;-65
2022/04/03 10:43:06;;;;;;;4.50;2.75;;;12.50;43.80;;;;;;5095749;28;20021;-65
2022/04/03 10:45:37;;;;;;;3.83;2.65;;;12.60;44.80;;;;;;5095582;28;20028;-66
2022/04/03 10:48:20;;;;;;;6.93;3.30;;;12.70;42.20;;;;;;5095353;28;20028;-65
2022/04/03 10:51:10;;;;;;;3.63;2.30;;;12.70;44.30;;;;;;5095522;28;20031;-65
2022/04/03 10:53:38;;;;;;;11.07;6.22;;;12.90;44.90;;;;;;5095351;28;20047;-66
2022/04/03 10:56:25;;;;;;;6.80;2.67;;;13.00;43.50;;;;;;5095113;28;20392;-68
2022/04/03 10:58:53;;;;;;;4.07;2.30;;;13.00;41.80;;;;;;5093139;28;20047;-66
2022/04/03 11:01:29;;;;;;;6.10;2.90;;;13.10;41.40;;;;;;5092464;28;20032;-65
2022/04/03 11:03:57;;;;;;;7.35;4.30;;;13.20;42.00;;;;;;5094102;28;20035;-65
2022/04/03 11:06:26;;;;;;;5.90;2.35;;;13.20;41.90;;;;;;5095237;28;20024;-66
2022/04/03 11:09:14;;;;;;;7.40;2.33;;;13.30;42.30;;;;;;5095201;28;20391;-65
2022/04/03 11:11:43;;;;;;;8.27;2.40;;;13.30;41.80;;;;;;5094790;28;20388;-65
2022/04/03 11:14:11;;;;;;;5.50;2.40;;;13.40;41.00;;;;;;5094700;28;20048;-65
2022/04/03 11:16:54;;;;;;;6.68;2.40;;;13.40;39.50;;;;;;5094557;28;20039;-66
2022/04/03 11:19:49;;;;;;;6.93;2.65;;;13.40;40.00;;;;;;5094915;28;20139;-65
2022/04/03 11:22:17;;;;;;;5.85;2.90;;;13.40;41.40;;;;;;5081011;28;20051;-65
2022/04/03 11:24:43;;;;;;;5.30;3.05;;;13.50;40.80;;;;;;5091157;28;20039;-66
2022/04/03 11:27:10;;;;;;;4.47;2.25;;;13.60;40.40;;;;;;5091674;28;20173;-66
2022/04/03 11:29:36;;;;;;;21.63;14.55;;;13.70;41.90;;;;;;5092711;28;21126;-65
2022/04/03 11:32:06;;;;;;;16.48;8.82;;;13.90;42.30;;;;;;5094327;28;20044;-65
2022/04/03 11:34:33;;;;;;;28.08;20.15;;;14.10;41.20;;;;;;5094449;28;20051;-65
2022/04/03 11:37:00;;;;;;;7.78;2.70;;;14.20;39.70;;;;;;5094185;28;20475;-66
2022/04/03 11:39:40;;;;;;;5.72;3.72;;;14.10;40.10;;;;;;5093768;28;20483;-66
2022/04/03 11:42:10;;;;;;;3.75;2.50;;;14.00;40.10;;;;;;5091754;28;20129;-66
2022/04/03 11:44:37;;;;;;;6.25;2.70;;;13.80;39.70;;;;;;5091268;28;20511;-66
2022/04/03 11:47:05;;;;;;;5.65;2.63;;;13.70;40.80;;;;;;5092997;28;20431;-65
2022/04/03 11:49:33;;;;;;;3.55;2.63;;;13.70;40.60;;;;;;5094110;28;20043;-65
2022/04/03 11:52:09;;;;;;;3.47;2.67;;;13.50;40.70;;;;;;5094037;28;20032;-65
2022/04/03 11:54:36;;;;;;;4.50;2.50;;;13.40;39.20;;;;;;5093996;28;20040;-65
2022/04/03 11:57:05;;;;;;;3.72;2.53;;;13.30;40.30;;;;;;5094244;28;20028;-66
2022/04/03 11:59:38;;;;;;;4.38;2.30;;;13.20;40.70;;;;;;5093798;28;20083;-66
2022/04/03 12:02:13;;;;;;;7.68;2.10;;;13.10;41.10;;;;;;5093798;28;20032;-65
2022/04/03 12:04:43;;;;;;;3.40;2.05;;;13.00;41.90;;;;;;5093794;28;20036;-65
2022/04/03 12:07:13;;;;;;;4.07;2.40;;;13.00;41.90;;;;;;5094113;28;20064;-66
2022/04/03 12:09:41;;;;;;;3.17;2.10;;;12.90;42.20;;;;;;5093709;28;20388;-65
2022/04/03 12:12:08;;;;;;;6.53;2.30;;;12.90;42.10;;;;;;5093762;28;20443;-66
2022/04/03 12:14:36;;;;;;;7.30;2.22;;;12.80;42.60;;;;;;5093693;28;20052;-66
2022/04/03 12:17:04;;;;;;;2.83;2.20;;;12.70;42.90;;;;;;5093196;28;20036;-66
2022/04/03 12:19:44;;;;;;;2.55;2.03;;;12.60;42.10;;;;;;5090516;28;20119;-66
2022/04/03 12:22:12;;;;;;;4.95;2.13;;;12.50;43.50;;;;;;5090997;28;20044;-66
2022/04/03 12:24:39;;;;;;;3.15;2.13;;;12.40;43.20;;;;;;5093224;28;20373;-65
2022/04/03 12:27:06;;;;;;;4.55;2.30;;;12.40;43.10;;;;;;5093594;28;20082;-66
2022/04/03 12:29:36;;;;;;;4.47;2.50;;;12.40;44.80;;;;;;5093400;28;20032;-67
2022/04/03 12:32:03;;;;;;;5.57;2.47;;;12.30;43.50;;;;;;5092884;28;20039;-65
2022/04/03 12:34:31;;;;;;;2.75;2.30;;;12.30;43.90;;;;;;5093200;28;20488;-65
2022/04/03 12:36:59;;;;;;;4.45;2.38;;;12.20;44.70;;;;;;5093434;28;20036;-65
2022/04/03 12:39:31;;;;;;;4.50;2.47;;;;;;;;;;5093248;28;20081;-63
2022/04/03 12:42:08;;;;;;;6.03;2.47;;;12.10;44.20;;;;;;5093581;28;20032;-63
2022/04/03 12:44:46;;;;;;;4.07;2.42;;;12.10;44.90;;;;;;5090170;28;20060;-63
2022/04/03 12:47:13;;;;;;;4.82;2.55;;;12.10;44.70;;;;;;5089845;28;20028;-62
2022/04/03 12:49:40;;;;;;;5.13;2.30;;;12.10;43.70;;;;;;5090388;28;20365;-62
2022/04/03 12:52:06;;;;;;;3.20;2.22;;;12.10;44.00;;;;;;5093602;28;20089;-62
2022/04/03 12:54:45;;;;;;;3.95;2.42;;;12.00;44.00;;;;;;5093020;28;20446;-62
2022/04/03 13:00:17;;;;;;;3.25;2.33;;;11.90;43.80;;;;;;5093206;28;20090;-62
2022/04/03 13:02:47;;;;;;;4.22;2.58;;;12.00;43.30;;;;;;5092886;28;20032;-62
2022/04/03 13:05:16;;;;;;;4.75;2.50;;;11.90;43.00;;;;;;5092621;28;20255;-62
2022/04/03 13:07:43;;;;;;;4.25;2.40;;;12.00;43.80;;;;;;5091930;28;20040;-63
2022/04/03 13:10:16;;;;;;;6.78;2.25;;;12.00;43.10;;;;;;5090452;28;20043;-62
2022/04/03 13:12:44;;;;;;;3.83;2.38;;;12.00;43.20;;;;;;5093205;28;20048;-62
2022/04/03 13:15:10;;;;;;;3.80;2.40;;;12.00;43.40;;;;;;5096828;28;20055;-62
2022/04/03 13:17:36;;;;;;;8.60;2.35;;;12.00;43.40;;;;;;5097069;28;20039;-62
2022/04/03 13:20:02;;;;;;;5.90;2.45;;;12.00;43.30;;;;;;5097201;28;20036;-62
2022/04/03 13:22:28;;;;;;;2.80;2.20;;;12.00;43.90;;;;;;5097270;28;20040;-62
2022/04/03 13:24:54;;;;;;;3.33;2.67;;;12.00;43.80;;;;;;5097146;28;20089;-62
2022/04/03 13:27:20;;;;;;;4.03;2.05;;;12.00;44.30;;;;;;5096915;28;20074;-62
2022/04/03 13:29:45;;;;;;;4.93;2.78;;;12.00;44.10;;;;;;5096798;28;20040;-63
2022/04/03 13:32:11;;;;;;;6.30;2.50;;;12.10;44.50;;;;;;5096680;28;20050;-62
2022/04/03 13:34:37;;;;;;;3.10;1.92;;;12.10;43.50;;;;;;5093691;28;20087;-62
2022/04/03 13:37:03;;;;;;;3.78;2.28;;;12.10;44.00;;;;;;5094121;28;20040;-62
2022/04/03 13:39:28;;;;;;;5.30;2.30;;;12.10;43.10;;;;;;5094455;28;20036;-62
2022/04/03 13:41:55;;;;;;;4.43;2.60;;;12.10;44.50;;;;;;5096301;28;20038;-62
2022/04/03 13:44:21;;;;;;;4.43;2.20;;;12.10;43.70;;;;;;5096451;28;20169;-62
2022/04/03 13:46:48;;;;;;;4.80;2.28;;;12.10;44.50;;;;;;5096433;28;20086;-62
2022/04/03 13:49:14;;;;;;;5.18;2.20;;;12.10;44.70;;;;;;5096189;28;20037;-62
2022/04/03 13:51:40;;;;;;;5.28;2.35;;;12.10;43.20;;;;;;5096551;28;20055;-62
2022/04/03 13:54:07;;;;;;;4.97;2.67;;;12.10;42.50;;;;;;5096111;28;20043;-62
2022/04/03 13:56:33;;;;;;;3.92;2.53;;;12.10;43.70;;;;;;5096045;28;20032;-62
2022/04/03 13:59:00;;;;;;;2.75;2.00;;;12.00;42.90;;;;;;5096185;28;20403;-63
2022/04/03 14:01:27;;;;;;;4.90;2.42;;;12.00;43.80;;;;;;5096025;28;20365;-62
2022/04/03 14:03:53;;;;;;;6.10;2.67;;;12.00;44.10;;;;;;5096218;28;20032;-62
2022/04/03 14:06:18;;;;;;;5.60;2.33;;;12.00;44.00;;;;;;5096368;28;20062;-62
2022/04/03 14:08:44;;;;;;;6.88;2.67;;;11.90;44.20;;;;;;5095977;28;20051;-62
2022/04/03 14:11:10;;;;;;;2.80;2.30;;;11.80;44.10;;;;;;5096045;28;20044;-62
2022/04/03 14:13:36;;;;;;;3.65;2.35;;;11.80;45.00;;;;;;5095807;28;20055;-62
2022/04/03 14:16:04;;;;;;;3.13;2.15;;;11.80;46.60;;;;;;5095929;28;20114;-64
2022/04/03 14:18:30;;;;;;;5.25;2.22;;;11.80;46.40;;;;;;5095960;28;20079;-63
2022/04/03 14:20:58;;;;;;;3.35;2.10;;;11.80;46.30;;;;;;5095993;28;20035;-62
2022/04/03 14:23:36;;;;;;;3.22;2.10;;;11.80;47.90;;;;;;5095028;28;20523;-65
2022/04/03 14:26:07;;;;;;;5.10;2.88;;;11.80;48.40;;;;;;5095497;28;20029;-62